Traveller — PHAM — position and weather

sailwx.info

Track history (hours):
 
Tides and Currents Weather Stations Pressure Air Temp Water Temp Dewpoint Dewpoint Depression Visibility Wind Speed Wind Dir Waves Ship Positions

Traveller

Last reported at 2015-Aug-31 15:25 UTC. Time now 2015-Aug-31 17:51 UTC.
Position N 38°29' W 008°49'.

Length 101 m; beam 20 m.

Type: Ship. MMSI: 246111000.

Date/timePositionNaut miles runAvg speedWind from/ knotsBaromVisibWave heightAir tempDewpointWater temp
2015-Aug-31 15:25N 38°29' W 008°49'0 0.0
2015-Aug-31 12:29N 38°29' W 008°49'5 4.5
2015-Aug-31 11:18N 38°29' W 008°56'8 9.9
2015-Aug-31 10:33N 38°23' W 009°02'0 0.1
2015-Aug-31 09:33N 38°23' W 009°02'2 2.1
2015-Aug-31 08:33N 38°23' W 008°59'1 0.5
2015-Aug-31 07:33N 38°23' W 008°60'1 0.6
2015-Aug-31 06:33N 38°23' W 009°00'1 1.2
2015-Aug-31 05:34N 38°24' W 009°01'2 2.3
2015-Aug-31 04:33N 38°24' W 009°04'1111.4
2015-Aug-31 03:33N 38°23' W 009°18'1413.8
2015-Aug-31 02:33N 38°27' W 009°35'1414.0
2015-Aug-31 01:33N 38°31' W 009°52'1313.0
2015-Aug-31 00:34N 38°37' W 010°07'1413.7
2015-Aug-30 23:33N 38°50' W 010°07'1313.1
2015-Aug-30 22:33N 39°04' W 010°07'1413.6
2015-Aug-30 21:33N 39°17' W 010°04'1211.8
2015-Aug-30 20:30N 39°27' W 009°55'1310.1
2015-Aug-30 19:13N 39°18' W 009°44'812.8
2015-Aug-30 18:33N 39°09' W 009°44'1414.2
2015-Aug-30 17:33N 39°10' W 010°03'1211.5
2015-Aug-30 16:33N 39°21' W 010°05'1413.8
2015-Aug-30 15:33N 39°35' W 010°06'17513.9
2015-Aug-30 03:00N 42°30' W 010°06'4214.0 999 / 11013.0 0.5 0.517.013.9
2015-Aug-30 00:00N 43°12' W 010°06'17114.2 999 / 21014.4 0.5 19.016.0
2015-Aug-29 12:00N 45°42' W 008°12'12514.8 999 / 21016.0 2.2 0.519.016.0
2015-Aug-29 03:33N 47°33' W 006°51'1018.6
2015-Aug-29 03:00N 47°42' W 006°42'32313.2 999 / 21019.1 5.4 0.516.012.8
2015-Aug-28 02:29N 50°34' E 000°16'1415.1
2015-Aug-28 01:33N 50°39' E 000°37'1514.5
2015-Aug-28 00:33N 50°48' E 000°55'1413.3
2015-Aug-27 23:32N 50°56' E 001°12'1111.8
2015-Aug-27 22:33N 51°04' E 001°25'1110.9
2015-Aug-27 21:33N 51°10' E 001°39'1211.8
2015-Aug-27 20:33N 51°19' E 001°52'1110.7
2015-Aug-27 19:33N 51°23' E 002°08'1413.2
2015-Aug-27 18:32N 51°23' E 002°30'1313.5
2015-Aug-27 17:33N 51°22' E 002°51'1716.4
2015-Aug-27 16:33N 51°25' E 003°17'1514.9
2015-Aug-27 15:33N 51°26' E 003°41'1211.9
2015-Aug-27 14:33N 51°26' E 003°60'1212.0
2015-Aug-27 13:33N 51°20' E 004°16'4 4.1
2015-Aug-27 12:31N 51°16' E 004°17'1 0.7
2015-Aug-27 11:31N 51°16' E 004°16'1 0.9
2015-Aug-27 10:31N 51°16' E 004°14'0 0.0
2015-Aug-27 09:31N 51°16' E 004°14'0 0.0
2015-Aug-27 08:31N 51°16' E 004°14'0 0.0
2015-Aug-27 07:31N 51°16' E 004°14'0 0.0
2015-Aug-27 06:31N 51°16' E 004°14'0 0.0
2015-Aug-27 05:31N 51°16' E 004°14'0 0.0
2015-Aug-27 04:31N 51°16' E 004°14'0 0.0
2015-Aug-27 03:31N 51°16' E 004°14'0 0.0
2015-Aug-27 02:28N 51°16' E 004°14'0 0.0
2015-Aug-27 01:31N 51°16' E 004°14'0 0.0
2015-Aug-27 00:31N 51°16' E 004°14'0 0.0
2015-Aug-26 23:31N 51°16' E 004°14'0 0.0
2015-Aug-26 22:31N 51°16' E 004°14'0 0.0
2015-Aug-26 21:31N 51°16' E 004°14'0 0.0
2015-Aug-26 20:31N 51°16' E 004°14'0 0.0
2015-Aug-26 19:28N 51°16' E 004°14'0 0.0
2015-Aug-26 18:31N 51°16' E 004°14'0 0.0
2015-Aug-26 17:31N 51°16' E 004°14'0 0.0
2015-Aug-26 16:31N 51°16' E 004°14'0 0.0
2015-Aug-26 15:31N 51°16' E 004°14'0 0.0
2015-Aug-26 14:31N 51°16' E 004°14'0 0.0
2015-Aug-26 13:31N 51°16' E 004°14'0 0.0
2015-Aug-26 12:31N 51°16' E 004°14'0 0.0
2015-Aug-26 11:31N 51°16' E 004°14'0 0.0
2015-Aug-26 10:31N 51°16' E 004°14'0 0.0
2015-Aug-26 09:31N 51°16' E 004°14'0 0.0
2015-Aug-26 08:31N 51°16' E 004°14'0 0.0
2015-Aug-26 07:25N 51°16' E 004°14'0 0.0
2015-Aug-26 06:31N 51°16' E 004°14'0 0.0
2015-Aug-26 05:31N 51°16' E 004°14'0 0.0
2015-Aug-26 04:31N 51°16' E 004°14'0 0.0
2015-Aug-26 03:31N 51°16' E 004°14'0 0.0
2015-Aug-26 02:28N 51°16' E 004°14'0 0.0
2015-Aug-26 01:31N 51°16' E 004°14'0 0.0
2015-Aug-26 00:31N 51°16' E 004°14'0 0.0
2015-Aug-25 23:31N 51°16' E 004°14'0 0.0
2015-Aug-25 22:31N 51°16' E 004°14'0 0.0
2015-Aug-25 21:28N 51°16' E 004°14'0 0.0
2015-Aug-25 20:31N 51°16' E 004°14'0 0.0
2015-Aug-25 19:31N 51°16' E 004°14'0 0.0
2015-Aug-25 18:31N 51°16' E 004°14'0 0.0
2015-Aug-25 17:31N 51°16' E 004°14'0 0.0
2015-Aug-25 16:25N 51°16' E 004°14'0 0.0
2015-Aug-25 15:28N 51°16' E 004°14'0 0.0
2015-Aug-25 14:31N 51°16' E 004°14'0 0.0
2015-Aug-25 12:14N 51°16' E 004°14'0 0.0
2015-Aug-25 11:29N 51°16' E 004°14'0 0.0
2015-Aug-25 10:32N 51°16' E 004°14'0 0.0
2015-Aug-25 09:32N 51°16' E 004°14'0 0.0
2015-Aug-25 08:32N 51°16' E 004°14'0 0.0
2015-Aug-25 07:26N 51°16' E 004°14'0 0.0
2015-Aug-25 06:32N 51°16' E 004°14'0 0.0
2015-Aug-25 05:32N 51°16' E 004°14'0 0.0
2015-Aug-25 04:29N 51°16' E 004°14'0 0.0
2015-Aug-25 03:32N 51°16' E 004°14'0 0.0
2015-Aug-25 02:32N 51°16' E 004°14'0 0.0
2015-Aug-25 01:32N 51°16' E 004°14'0 0.0
2015-Aug-25 00:32N 51°16' E 004°14'0 0.0
2015-Aug-24 23:23N 51°16' E 004°14'0 0.0
2015-Aug-24 22:29N 51°16' E 004°14'0 0.0
2015-Aug-24 21:29N 51°16' E 004°14'0 0.0
2015-Aug-24 20:32N 51°16' E 004°14'0 0.0
2015-Aug-24 19:32N 51°16' E 004°14'0 0.0
2015-Aug-24 18:32N 51°16' E 004°14'0 0.0
2015-Aug-24 17:32N 51°16' E 004°14'0 0.0
2015-Aug-24 16:32N 51°16' E 004°14'0 0.0
2015-Aug-24 15:32N 51°16' E 004°14'0 0.0
2015-Aug-24 14:32N 51°16' E 004°14'0 0.0
2015-Aug-24 13:32N 51°16' E 004°14'0 0.0
2015-Aug-24 12:32N 51°16' E 004°14'0 0.0
2015-Aug-24 11:29N 51°16' E 004°14'0 0.0
2015-Aug-24 10:26N 51°16' E 004°14'0 0.0
2015-Aug-24 09:32N 51°16' E 004°14'0 0.0
2015-Aug-24 08:29N 51°16' E 004°14'0 0.0
2015-Aug-24 07:26N 51°16' E 004°14'0 0.0
2015-Aug-24 06:32N 51°16' E 004°14'0 0.0
2015-Aug-24 05:32N 51°16' E 004°14'0 0.0
2015-Aug-24 04:29N 51°16' E 004°14'0 0.0
2015-Aug-24 03:32N 51°16' E 004°14'0 0.0
2015-Aug-24 02:32N 51°16' E 004°14'0 0.0
2015-Aug-24 01:32N 51°16' E 004°14'0 0.0
2015-Aug-24 00:32N 51°16' E 004°14'0 0.0
2015-Aug-23 23:32N 51°16' E 004°14'0 0.0
2015-Aug-23 22:29N 51°16' E 004°14'0 0.0
2015-Aug-23 21:26N 51°16' E 004°14'0 0.0
2015-Aug-23 20:32N 51°16' E 004°14'0 0.0
2015-Aug-23 19:26N 51°16' E 004°14'0 0.0
2015-Aug-23 18:32N 51°16' E 004°14'0 0.0
2015-Aug-23 17:32N 51°16' E 004°14'0 0.0
2015-Aug-23 16:29N 51°16' E 004°14'0 0.0
2015-Aug-23 15:32N 51°16' E 004°14'0 0.0
2015-Aug-23 14:26N 51°16' E 004°14'0 0.0
2015-Aug-23 13:29N 51°16' E 004°14'0 0.0
2015-Aug-23 12:32N 51°16' E 004°14'0 0.0
2015-Aug-23 11:32N 51°16' E 004°14'0 0.0
2015-Aug-23 10:32N 51°16' E 004°14'0 0.0
2015-Aug-23 09:29N 51°16' E 004°14'0 0.0
2015-Aug-23 08:32N 51°16' E 004°14'0 0.0
2015-Aug-23 07:32N 51°16' E 004°14'0 0.0
2015-Aug-23 06:32N 51°16' E 004°14'0 0.0
2015-Aug-23 05:32N 51°16' E 004°14'0 0.0
2015-Aug-23 04:29N 51°16' E 004°14'0 0.0
2015-Aug-23 03:29N 51°16' E 004°14'0 0.0
2015-Aug-23 02:32N 51°16' E 004°14'0 0.0
2015-Aug-23 01:32N 51°16' E 004°14'0 0.0
2015-Aug-23 00:32N 51°16' E 004°14'0 0.0
2015-Aug-22 23:32N 51°16' E 004°14'0 0.0
2015-Aug-22 22:32N 51°16' E 004°14'0 0.0
2015-Aug-22 21:32N 51°16' E 004°14'0 0.0
2015-Aug-22 20:26N 51°16' E 004°14'0 0.0
2015-Aug-22 19:32N 51°16' E 004°14'0 0.0
2015-Aug-22 18:32N 51°16' E 004°14'0 0.0
2015-Aug-22 17:32N 51°16' E 004°14'0 0.0
2015-Aug-22 16:32N 51°16' E 004°14'0 0.0
2015-Aug-22 15:32N 51°16' E 004°14'0 0.0
2015-Aug-22 14:32N 51°16' E 004°14'0 0.0
2015-Aug-22 13:32N 51°16' E 004°14'0 0.0
2015-Aug-22 12:32N 51°16' E 004°14'0 0.0
2015-Aug-22 11:32N 51°16' E 004°14'0 0.0
2015-Aug-22 10:32N 51°16' E 004°14'0 0.0
2015-Aug-22 09:32N 51°16' E 004°14'0 0.0
2015-Aug-22 08:32N 51°16' E 004°14'0 0.0
2015-Aug-22 07:32N 51°16' E 004°14'0 0.0
2015-Aug-22 06:32N 51°16' E 004°14'0 0.0
2015-Aug-22 05:29N 51°16' E 004°14'0 0.0
2015-Aug-22 04:32N 51°16' E 004°14'0 0.0
2015-Aug-22 03:32N 51°16' E 004°14'0 0.0
2015-Aug-22 02:29N 51°16' E 004°14'0 0.0
2015-Aug-22 01:29N 51°16' E 004°14'0 0.0
2015-Aug-22 00:32N 51°16' E 004°14'0 0.0
2015-Aug-21 23:29N 51°16' E 004°14'0 0.0
2015-Aug-21 22:32N 51°16' E 004°14'0 0.0
2015-Aug-21 21:29N 51°16' E 004°14'0 0.0
2015-Aug-21 20:32N 51°16' E 004°14'0 0.0
2015-Aug-21 19:32N 51°16' E 004°14'0 0.0
2015-Aug-21 18:32N 51°16' E 004°14'0 0.0
2015-Aug-21 17:32N 51°16' E 004°14'0 0.0
2015-Aug-21 16:32N 51°16' E 004°14'0 0.0
2015-Aug-21 15:32N 51°16' E 004°14'  
Track history (hours):
 
Tides and Currents Weather Stations Pressure Air Temp Water Temp Dewpoint Dewpoint Depression Visibility Wind Speed Wind Dir Waves Ship Positions

Traveller

Last reported at 2015-Aug-31 15:25 UTC. Time now 2015-Aug-31 17:51 UTC.
Position N 38°29' W 008°49'.

Length 101 m; beam 20 m.

Type: Ship. MMSI: 246111000.

Date/timePositionNaut miles runAvg speedWind from/ knotsBaromVisibWave heightAir tempDewpointWater temp
2015-Aug-31 15:25N 38°29' W 008°49'0 0.0
2015-Aug-31 12:29N 38°29' W 008°49'5 4.5
2015-Aug-31 11:18N 38°29' W 008°56'8 9.9
2015-Aug-31 10:33N 38°23' W 009°02'0 0.1
2015-Aug-31 09:33N 38°23' W 009°02'2 2.1
2015-Aug-31 08:33N 38°23' W 008°59'1 0.5
2015-Aug-31 07:33N 38°23' W 008°60'1 0.6
2015-Aug-31 06:33N 38°23' W 009°00'1 1.2
2015-Aug-31 05:34N 38°24' W 009°01'2 2.3
2015-Aug-31 04:33N 38°24' W 009°04'1111.4
2015-Aug-31 03:33N 38°23' W 009°18'1413.8
2015-Aug-31 02:33N 38°27' W 009°35'1414.0
2015-Aug-31 01:33N 38°31' W 009°52'1313.0
2015-Aug-31 00:34N 38°37' W 010°07'1413.7
2015-Aug-30 23:33N 38°50' W 010°07'1313.1
2015-Aug-30 22:33N 39°04' W 010°07'1413.6
2015-Aug-30 21:33N 39°17' W 010°04'1211.8
2015-Aug-30 20:30N 39°27' W 009°55'1310.1
2015-Aug-30 19:13N 39°18' W 009°44'812.8
2015-Aug-30 18:33N 39°09' W 009°44'1414.2
2015-Aug-30 17:33N 39°10' W 010°03'1211.5
2015-Aug-30 16:33N 39°21' W 010°05'1413.8
2015-Aug-30 15:33N 39°35' W 010°06'17513.9
2015-Aug-30 03:00N 42°30' W 010°06'4214.0 999 / 11013.0 0.5 0.517.013.9
2015-Aug-30 00:00N 43°12' W 010°06'17114.2 999 / 21014.4 0.5 19.016.0
2015-Aug-29 12:00N 45°42' W 008°12'12514.8 999 / 21016.0 2.2 0.519.016.0
2015-Aug-29 03:33N 47°33' W 006°51'1018.6
2015-Aug-29 03:00N 47°42' W 006°42'32313.2 999 / 21019.1 5.4 0.516.012.8
2015-Aug-28 02:29N 50°34' E 000°16'1415.1
2015-Aug-28 01:33N 50°39' E 000°37'1514.5
2015-Aug-28 00:33N 50°48' E 000°55'1413.3
2015-Aug-27 23:32N 50°56' E 001°12'1111.8
2015-Aug-27 22:33N 51°04' E 001°25'1110.9
2015-Aug-27 21:33N 51°10' E 001°39'1211.8
2015-Aug-27 20:33N 51°19' E 001°52'1110.7
2015-Aug-27 19:33N 51°23' E 002°08'1413.2
2015-Aug-27 18:32N 51°23' E 002°30'1313.5
2015-Aug-27 17:33N 51°22' E 002°51'1716.4
2015-Aug-27 16:33N 51°25' E 003°17'1514.9
2015-Aug-27 15:33N 51°26' E 003°41'1211.9
2015-Aug-27 14:33N 51°26' E 003°60'1212.0
2015-Aug-27 13:33N 51°20' E 004°16'4 4.1
2015-Aug-27 12:31N 51°16' E 004°17'1 0.7
2015-Aug-27 11:31N 51°16' E 004°16'1 0.9
2015-Aug-27 10:31N 51°16' E 004°14'0 0.0
2015-Aug-27 09:31N 51°16' E 004°14'0 0.0
2015-Aug-27 08:31N 51°16' E 004°14'0 0.0
2015-Aug-27 07:31N 51°16' E 004°14'0 0.0
2015-Aug-27 06:31N 51°16' E 004°14'0 0.0
2015-Aug-27 05:31N 51°16' E 004°14'0 0.0
2015-Aug-27 04:31N 51°16' E 004°14'0 0.0
2015-Aug-27 03:31N 51°16' E 004°14'0 0.0
2015-Aug-27 02:28N 51°16' E 004°14'0 0.0
2015-Aug-27 01:31N 51°16' E 004°14'0 0.0
2015-Aug-27 00:31N 51°16' E 004°14'0 0.0
2015-Aug-26 23:31N 51°16' E 004°14'0 0.0
2015-Aug-26 22:31N 51°16' E 004°14'0 0.0
2015-Aug-26 21:31N 51°16' E 004°14'0 0.0
2015-Aug-26 20:31N 51°16' E 004°14'0 0.0
2015-Aug-26 19:28N 51°16' E 004°14'0 0.0
2015-Aug-26 18:31N 51°16' E 004°14'0 0.0
2015-Aug-26 17:31N 51°16' E 004°14'0 0.0
2015-Aug-26 16:31N 51°16' E 004°14'0 0.0
2015-Aug-26 15:31N 51°16' E 004°14'0 0.0
2015-Aug-26 14:31N 51°16' E 004°14'0 0.0
2015-Aug-26 13:31N 51°16' E 004°14'0 0.0
2015-Aug-26 12:31N 51°16' E 004°14'0 0.0
2015-Aug-26 11:31N 51°16' E 004°14'0 0.0
2015-Aug-26 10:31N 51°16' E 004°14'0 0.0
2015-Aug-26 09:31N 51°16' E 004°14'0 0.0
2015-Aug-26 08:31N 51°16' E 004°14'0 0.0
2015-Aug-26 07:25N 51°16' E 004°14'0 0.0
2015-Aug-26 06:31N 51°16' E 004°14'0 0.0
2015-Aug-26 05:31N 51°16' E 004°14'0 0.0
2015-Aug-26 04:31N 51°16' E 004°14'0 0.0
2015-Aug-26 03:31N 51°16' E 004°14'0 0.0
2015-Aug-26 02:28N 51°16' E 004°14'0 0.0
2015-Aug-26 01:31N 51°16' E 004°14'0 0.0
2015-Aug-26 00:31N 51°16' E 004°14'0 0.0
2015-Aug-25 23:31N 51°16' E 004°14'0 0.0
2015-Aug-25 22:31N 51°16' E 004°14'0 0.0
2015-Aug-25 21:28N 51°16' E 004°14'0 0.0
2015-Aug-25 20:31N 51°16' E 004°14'0 0.0
2015-Aug-25 19:31N 51°16' E 004°14'0 0.0
2015-Aug-25 18:31N 51°16' E 004°14'0 0.0
2015-Aug-25 17:31N 51°16' E 004°14'0 0.0
2015-Aug-25 16:25N 51°16' E 004°14'0 0.0
2015-Aug-25 15:28N 51°16' E 004°14'0 0.0
2015-Aug-25 14:31N 51°16' E 004°14'0 0.0
2015-Aug-25 12:14N 51°16' E 004°14'0 0.0
2015-Aug-25 11:29N 51°16' E 004°14'0 0.0
2015-Aug-25 10:32N 51°16' E 004°14'0 0.0
2015-Aug-25 09:32N 51°16' E 004°14'0 0.0
2015-Aug-25 08:32N 51°16' E 004°14'0 0.0
2015-Aug-25 07:26N 51°16' E 004°14'0 0.0
2015-Aug-25 06:32N 51°16' E 004°14'0 0.0
2015-Aug-25 05:32N 51°16' E 004°14'0 0.0
2015-Aug-25 04:29N 51°16' E 004°14'0 0.0
2015-Aug-25 03:32N 51°16' E 004°14'0 0.0
2015-Aug-25 02:32N 51°16' E 004°14'0 0.0
2015-Aug-25 01:32N 51°16' E 004°14'0 0.0
2015-Aug-25 00:32N 51°16' E 004°14'0 0.0
2015-Aug-24 23:23N 51°16' E 004°14'0 0.0
2015-Aug-24 22:29N 51°16' E 004°14'0 0.0
2015-Aug-24 21:29N 51°16' E 004°14'0 0.0
2015-Aug-24 20:32N 51°16' E 004°14'0 0.0
2015-Aug-24 19:32N 51°16' E 004°14'0 0.0
2015-Aug-24 18:32N 51°16' E 004°14'0 0.0
2015-Aug-24 17:32N 51°16' E 004°14'0 0.0
2015-Aug-24 16:32N 51°16' E 004°14'0 0.0
2015-Aug-24 15:32N 51°16' E 004°14'0 0.0
2015-Aug-24 14:32N 51°16' E 004°14'0 0.0
2015-Aug-24 13:32N 51°16' E 004°14'0 0.0
2015-Aug-24 12:32N 51°16' E 004°14'0 0.0
2015-Aug-24 11:29N 51°16' E 004°14'0 0.0
2015-Aug-24 10:26N 51°16' E 004°14'0 0.0
2015-Aug-24 09:32N 51°16' E 004°14'0 0.0
2015-Aug-24 08:29N 51°16' E 004°14'0 0.0
2015-Aug-24 07:26N 51°16' E 004°14'0 0.0
2015-Aug-24 06:32N 51°16' E 004°14'0 0.0
2015-Aug-24 05:32N 51°16' E 004°14'0 0.0
2015-Aug-24 04:29N 51°16' E 004°14'0 0.0
2015-Aug-24 03:32N 51°16' E 004°14'0 0.0
2015-Aug-24 02:32N 51°16' E 004°14'0 0.0
2015-Aug-24 01:32N 51°16' E 004°14'0 0.0
2015-Aug-24 00:32N 51°16' E 004°14'0 0.0
2015-Aug-23 23:32N 51°16' E 004°14'0 0.0
2015-Aug-23 22:29N 51°16' E 004°14'0 0.0
2015-Aug-23 21:26N 51°16' E 004°14'0 0.0
2015-Aug-23 20:32N 51°16' E 004°14'0 0.0
2015-Aug-23 19:26N 51°16' E 004°14'0 0.0
2015-Aug-23 18:32N 51°16' E 004°14'0 0.0
2015-Aug-23 17:32N 51°16' E 004°14'0 0.0
2015-Aug-23 16:29N 51°16' E 004°14'0 0.0
2015-Aug-23 15:32N 51°16' E 004°14'0 0.0
2015-Aug-23 14:26N 51°16' E 004°14'0 0.0
2015-Aug-23 13:29N 51°16' E 004°14'0 0.0
2015-Aug-23 12:32N 51°16' E 004°14'0 0.0
2015-Aug-23 11:32N 51°16' E 004°14'0 0.0
2015-Aug-23 10:32N 51°16' E 004°14'0 0.0
2015-Aug-23 09:29N 51°16' E 004°14'0 0.0
2015-Aug-23 08:32N 51°16' E 004°14'0 0.0
2015-Aug-23 07:32N 51°16' E 004°14'0 0.0
2015-Aug-23 06:32N 51°16' E 004°14'0 0.0
2015-Aug-23 05:32N 51°16' E 004°14'0 0.0
2015-Aug-23 04:29N 51°16' E 004°14'0 0.0
2015-Aug-23 03:29N 51°16' E 004°14'0 0.0
2015-Aug-23 02:32N 51°16' E 004°14'0 0.0
2015-Aug-23 01:32N 51°16' E 004°14'0 0.0
2015-Aug-23 00:32N 51°16' E 004°14'0 0.0
2015-Aug-22 23:32N 51°16' E 004°14'0 0.0
2015-Aug-22 22:32N 51°16' E 004°14'0 0.0
2015-Aug-22 21:32N 51°16' E 004°14'0 0.0
2015-Aug-22 20:26N 51°16' E 004°14'0 0.0
2015-Aug-22 19:32N 51°16' E 004°14'0 0.0
2015-Aug-22 18:32N 51°16' E 004°14'0 0.0
2015-Aug-22 17:32N 51°16' E 004°14'0 0.0
2015-Aug-22 16:32N 51°16' E 004°14'0 0.0
2015-Aug-22 15:32N 51°16' E 004°14'0 0.0
2015-Aug-22 14:32N 51°16' E 004°14'0 0.0
2015-Aug-22 13:32N 51°16' E 004°14'0 0.0
2015-Aug-22 12:32N 51°16' E 004°14'0 0.0
2015-Aug-22 11:32N 51°16' E 004°14'0 0.0
2015-Aug-22 10:32N 51°16' E 004°14'0 0.0
2015-Aug-22 09:32N 51°16' E 004°14'0 0.0
2015-Aug-22 08:32N 51°16' E 004°14'0 0.0
2015-Aug-22 07:32N 51°16' E 004°14'0 0.0
2015-Aug-22 06:32N 51°16' E 004°14'0 0.0
2015-Aug-22 05:29N 51°16' E 004°14'0 0.0
2015-Aug-22 04:32N 51°16' E 004°14'0 0.0
2015-Aug-22 03:32N 51°16' E 004°14'0 0.0
2015-Aug-22 02:29N 51°16' E 004°14'0 0.0
2015-Aug-22 01:29N 51°16' E 004°14'0 0.0
2015-Aug-22 00:32N 51°16' E 004°14'0 0.0
2015-Aug-21 23:29N 51°16' E 004°14'0 0.0
2015-Aug-21 22:32N 51°16' E 004°14'0 0.0
2015-Aug-21 21:29N 51°16' E 004°14'0 0.0
2015-Aug-21 20:32N 51°16' E 004°14'0 0.0
2015-Aug-21 19:32N 51°16' E 004°14'0 0.0
2015-Aug-21 18:32N 51°16' E 004°14'0 0.0
2015-Aug-21 17:32N 51°16' E 004°14'0 0.0
2015-Aug-21 16:32N 51°16' E 004°14'0 0.0
2015-Aug-21 15:32N 51°16' E 004°14'  

Dump ship's entire track history